sensor_id;sensor_type;location;lat;lon;timestamp;P1;durP1;ratioP1;P2;durP2;ratioP2
16393;SDS011;8306;51.128;4.476;2023-05-10T00:02:19;10.20;;;8.67;;
16393;SDS011;8306;51.128;4.476;2023-05-10T00:04:46;10.47;;;9.53;;
16393;SDS011;8306;51.128;4.476;2023-05-10T00:07:12;11.73;;;10.60;;
16393;SDS011;8306;51.128;4.476;2023-05-10T00:09:39;10.17;;;9.10;;
16393;SDS011;8306;51.128;4.476;2023-05-10T00:12:05;11.10;;;10.10;;
16393;SDS011;8306;51.128;4.476;2023-05-10T00:14:32;10.67;;;9.77;;
16393;SDS011;8306;51.128;4.476;2023-05-10T00:16:58;12.87;;;10.87;;
16393;SDS011;8306;51.128;4.476;2023-05-10T00:19:25;10.53;;;9.53;;
16393;SDS011;8306;51.128;4.476;2023-05-10T00:21:51;14.00;;;11.57;;
16393;SDS011;8306;51.128;4.476;2023-05-10T00:24:18;10.57;;;9.60;;
16393;SDS011;8306;51.128;4.476;2023-05-10T00:26:44;11.20;;;10.20;;
16393;SDS011;8306;51.128;4.476;2023-05-10T00:29:11;11.90;;;10.70;;
16393;SDS011;8306;51.128;4.476;2023-05-10T00:31:37;12.30;;;11.10;;
16393;SDS011;8306;51.128;4.476;2023-05-10T00:34:04;13.03;;;11.40;;
16393;SDS011;8306;51.128;4.476;2023-05-10T00:36:30;11.70;;;10.60;;
16393;SDS011;8306;51.128;4.476;2023-05-10T00:38:57;11.60;;;10.43;;
16393;SDS011;8306;51.128;4.476;2023-05-10T00:41:23;16.53;;;11.43;;
16393;SDS011;8306;51.128;4.476;2023-05-10T00:43:50;11.20;;;10.07;;
16393;SDS011;8306;51.128;4.476;2023-05-10T00:46:17;13.23;;;11.60;;
16393;SDS011;8306;51.128;4.476;2023-05-10T00:48:43;11.73;;;10.60;;
16393;SDS011;8306;51.128;4.476;2023-05-10T00:51:09;10.80;;;9.90;;
16393;SDS011;8306;51.128;4.476;2023-05-10T00:53:36;14.33;;;11.67;;
16393;SDS011;8306;51.128;4.476;2023-05-10T00:56:02;12.60;;;11.33;;
16393;SDS011;8306;51.128;4.476;2023-05-10T00:58:29;11.77;;;10.50;;
16393;SDS011;8306;51.128;4.476;2023-05-10T01:00:55;13.00;;;11.63;;
16393;SDS011;8306;51.128;4.476;2023-05-10T01:03:22;11.10;;;10.13;;
16393;SDS011;8306;51.128;4.476;2023-05-10T01:05:48;18.00;;;11.07;;
16393;SDS011;8306;51.128;4.476;2023-05-10T01:08:15;12.90;;;11.60;;
16393;SDS011;8306;51.128;4.476;2023-05-10T01:10:41;15.40;;;12.10;;
16393;SDS011;8306;51.128;4.476;2023-05-10T01:13:08;11.47;;;10.27;;
16393;SDS011;8306;51.128;4.476;2023-05-10T01:15:34;12.37;;;10.87;;
16393;SDS011;8306;51.128;4.476;2023-05-10T01:18:00;13.93;;;12.30;;
16393;SDS011;8306;51.128;4.476;2023-05-10T01:20:27;14.43;;;11.80;;
16393;SDS011;8306;51.128;4.476;2023-05-10T01:34:19;13.23;;;11.93;;
16393;SDS011;8306;51.128;4.476;2023-05-10T01:36:45;15.07;;;12.77;;
16393;SDS011;8306;51.128;4.476;2023-05-10T01:49:32;13.90;;;12.17;;
16393;SDS011;8306;51.128;4.476;2023-05-10T01:52:08;13.47;;;11.67;;
16393;SDS011;8306;51.128;4.476;2023-05-10T01:54:24;13.40;;;12.20;;
16393;SDS011;8306;51.128;4.476;2023-05-10T01:57:01;13.30;;;12.00;;
16393;SDS011;8306;51.128;4.476;2023-05-10T01:59:28;14.67;;;13.43;;
16393;SDS011;8306;51.128;4.476;2023-05-10T02:01:53;12.87;;;11.57;;
16393;SDS011;8306;51.128;4.476;2023-05-10T02:04:19;11.47;;;10.50;;
16393;SDS011;8306;51.128;4.476;2023-05-10T02:06:47;14.77;;;13.37;;
16393;SDS011;8306;51.128;4.476;2023-05-10T02:09:12;13.17;;;11.97;;
16393;SDS011;8306;51.128;4.476;2023-05-10T02:11:39;13.80;;;12.60;;
16393;SDS011;8306;51.128;4.476;2023-05-10T02:14:06;13.90;;;12.77;;
16393;SDS011;8306;51.128;4.476;2023-05-10T02:16:32;13.20;;;12.00;;
16393;SDS011;8306;51.128;4.476;2023-05-10T02:18:58;15.10;;;13.80;;
16393;SDS011;8306;51.128;4.476;2023-05-10T02:21:25;14.77;;;13.37;;
16393;SDS011;8306;51.128;4.476;2023-05-10T02:23:51;16.10;;;14.40;;
16393;SDS011;8306;51.128;4.476;2023-05-10T02:26:18;12.77;;;11.77;;
16393;SDS011;8306;51.128;4.476;2023-05-10T02:28:44;13.87;;;12.57;;
16393;SDS011;8306;51.128;4.476;2023-05-10T02:31:11;14.57;;;13.23;;
16393;SDS011;8306;51.128;4.476;2023-05-10T02:33:40;15.17;;;13.87;;
16393;SDS011;8306;51.128;4.476;2023-05-10T02:36:07;15.03;;;13.73;;
16393;SDS011;8306;51.128;4.476;2023-05-10T02:38:33;15.70;;;13.57;;
16393;SDS011;8306;51.128;4.476;2023-05-10T02:40:59;17.53;;;15.87;;
16393;SDS011;8306;51.128;4.476;2023-05-10T02:43:26;17.33;;;15.73;;
16393;SDS011;8306;51.128;4.476;2023-05-10T02:45:52;16.27;;;14.87;;
16393;SDS011;8306;51.128;4.476;2023-05-10T02:48:19;16.80;;;15.50;;
16393;SDS011;8306;51.128;4.476;2023-05-10T02:50:45;16.00;;;14.70;;
16393;SDS011;8306;51.128;4.476;2023-05-10T02:53:15;19.33;;;17.43;;
16393;SDS011;8306;51.128;4.476;2023-05-10T02:55:39;17.80;;;16.30;;
16393;SDS011;8306;51.128;4.476;2023-05-10T02:58:05;18.67;;;17.03;;
16393;SDS011;8306;51.128;4.476;2023-05-10T03:00:31;18.97;;;17.07;;
16393;SDS011;8306;51.128;4.476;2023-05-10T03:02:58;22.20;;;19.27;;
16393;SDS011;8306;51.128;4.476;2023-05-10T03:05:24;21.13;;;19.13;;
16393;SDS011;8306;51.128;4.476;2023-05-10T03:07:50;18.43;;;16.70;;
16393;SDS011;8306;51.128;4.476;2023-05-10T03:10:17;21.20;;;19.10;;
16393;SDS011;8306;51.128;4.476;2023-05-10T03:17:59;27.83;;;21.97;;
16393;SDS011;8306;51.128;4.476;2023-05-10T03:20:29;32.27;;;23.50;;
16393;SDS011;8306;51.128;4.476;2023-05-10T03:22:55;25.93;;;23.20;;
16393;SDS011;8306;51.128;4.476;2023-05-10T03:25:22;26.03;;;23.23;;
16393;SDS011;8306;51.128;4.476;2023-05-10T03:27:48;29.50;;;25.23;;
16393;SDS011;8306;51.128;4.476;2023-05-10T03:30:15;34.67;;;27.83;;
16393;SDS011;8306;51.128;4.476;2023-05-10T03:32:41;51.53;;;32.73;;
16393;SDS011;8306;51.128;4.476;2023-05-10T03:35:11;55.00;;;34.70;;
16393;SDS011;8306;51.128;4.476;2023-05-10T03:37:34;64.60;;;37.67;;
16393;SDS011;8306;51.128;4.476;2023-05-10T03:40:01;70.90;;;39.40;;
16393;SDS011;8306;51.128;4.476;2023-05-10T03:42:27;86.63;;;45.83;;
16393;SDS011;8306;51.128;4.476;2023-05-10T03:44:56;117.33;;;54.17;;
16393;SDS011;8306;51.128;4.476;2023-05-10T03:47:20;109.30;;;52.20;;
16393;SDS011;8306;51.128;4.476;2023-05-10T03:49:46;115.60;;;52.97;;
16393;SDS011;8306;51.128;4.476;2023-05-10T03:52:13;98.47;;;48.03;;
16393;SDS011;8306;51.128;4.476;2023-05-10T03:54:39;97.63;;;48.77;;
16393;SDS011;8306;51.128;4.476;2023-05-10T03:57:06;83.20;;;42.27;;
16393;SDS011;8306;51.128;4.476;2023-05-10T03:59:32;60.73;;;36.17;;
16393;SDS011;8306;51.128;4.476;2023-05-10T04:01:59;59.50;;;34.70;;
16393;SDS011;8306;51.128;4.476;2023-05-10T04:04:25;69.90;;;37.13;;
16393;SDS011;8306;51.128;4.476;2023-05-10T04:06:52;59.80;;;34.43;;
16393;SDS011;8306;51.128;4.476;2023-05-10T04:09:18;56.03;;;33.10;;
16393;SDS011;8306;51.128;4.476;2023-05-10T04:11:45;61.17;;;34.70;;
16393;SDS011;8306;51.128;4.476;2023-05-10T04:14:11;46.43;;;31.27;;
16393;SDS011;8306;51.128;4.476;2023-05-10T04:16:38;49.47;;;29.77;;
16393;SDS011;8306;51.128;4.476;2023-05-10T04:19:04;48.33;;;30.17;;
16393;SDS011;8306;51.128;4.476;2023-05-10T04:21:31;47.57;;;31.73;;
16393;SDS011;8306;51.128;4.476;2023-05-10T04:25:51;46.80;;;30.87;;
16393;SDS011;8306;51.128;4.476;2023-05-10T04:28:18;49.07;;;31.20;;
16393;SDS011;8306;51.128;4.476;2023-05-10T04:30:44;55.37;;;33.20;;
16393;SDS011;8306;51.128;4.476;2023-05-10T04:33:11;53.57;;;32.10;;
16393;SDS011;8306;51.128;4.476;2023-05-10T04:35:37;71.73;;;36.90;;
16393;SDS011;8306;51.128;4.476;2023-05-10T04:38:04;65.37;;;35.80;;
16393;SDS011;8306;51.128;4.476;2023-05-10T04:40:30;60.43;;;35.63;;
16393;SDS011;8306;51.128;4.476;2023-05-10T04:42:57;61.83;;;35.67;;
16393;SDS011;8306;51.128;4.476;2023-05-10T04:45:23;51.87;;;33.23;;
16393;SDS011;8306;51.128;4.476;2023-05-10T04:47:50;53.03;;;34.03;;
16393;SDS011;8306;51.128;4.476;2023-05-10T04:50:16;49.50;;;32.10;;
16393;SDS011;8306;51.128;4.476;2023-05-10T04:52:43;47.17;;;33.03;;
16393;SDS011;8306;51.128;4.476;2023-05-10T04:55:09;55.17;;;35.30;;
16393;SDS011;8306;51.128;4.476;2023-05-10T04:57:36;52.57;;;33.47;;
16393;SDS011;8306;51.128;4.476;2023-05-10T05:00:02;50.87;;;33.60;;
16393;SDS011;8306;51.128;4.476;2023-05-10T05:02:29;43.33;;;31.37;;
16393;SDS011;8306;51.128;4.476;2023-05-10T05:04:55;42.03;;;30.27;;
16393;SDS011;8306;51.128;4.476;2023-05-10T05:07:22;44.37;;;30.97;;
16393;SDS011;8306;51.128;4.476;2023-05-10T05:09:48;45.90;;;31.93;;
16393;SDS011;8306;51.128;4.476;2023-05-10T05:12:15;45.20;;;30.70;;
16393;SDS011;8306;51.128;4.476;2023-05-10T05:14:41;47.77;;;31.77;;
16393;SDS011;8306;51.128;4.476;2023-05-10T05:17:08;41.00;;;30.47;;
16393;SDS011;8306;51.128;4.476;2023-05-10T05:19:34;44.60;;;31.73;;
16393;SDS011;8306;51.128;4.476;2023-05-10T05:22:01;44.00;;;32.27;;
16393;SDS011;8306;51.128;4.476;2023-05-10T05:24:27;45.33;;;31.67;;
16393;SDS011;8306;51.128;4.476;2023-05-10T05:26:54;42.13;;;33.60;;
16393;SDS011;8306;51.128;4.476;2023-05-10T05:29:20;49.27;;;34.77;;
16393;SDS011;8306;51.128;4.476;2023-05-10T05:31:47;55.43;;;36.30;;
16393;SDS011;8306;51.128;4.476;2023-05-10T05:34:13;52.20;;;35.73;;
16393;SDS011;8306;51.128;4.476;2023-05-10T05:36:40;53.47;;;36.73;;
16393;SDS011;8306;51.128;4.476;2023-05-10T05:39:06;55.03;;;36.93;;
16393;SDS011;8306;51.128;4.476;2023-05-10T05:41:33;45.50;;;34.50;;
16393;SDS011;8306;51.128;4.476;2023-05-10T05:43:59;51.13;;;34.20;;
16393;SDS011;8306;51.128;4.476;2023-05-10T05:46:25;47.57;;;34.13;;
16393;SDS011;8306;51.128;4.476;2023-05-10T05:48:52;51.83;;;34.27;;
16393;SDS011;8306;51.128;4.476;2023-05-10T05:51:18;44.33;;;32.30;;
16393;SDS011;8306;51.128;4.476;2023-05-10T05:53:45;38.27;;;31.10;;
16393;SDS011;8306;51.128;4.476;2023-05-10T05:56:11;43.93;;;32.33;;
16393;SDS011;8306;51.128;4.476;2023-05-10T05:58:38;47.00;;;32.10;;
16393;SDS011;8306;51.128;4.476;2023-05-10T06:01:04;39.80;;;30.10;;
16393;SDS011;8306;51.128;4.476;2023-05-10T06:03:31;40.13;;;30.83;;
16393;SDS011;8306;51.128;4.476;2023-05-10T06:05:57;35.33;;;28.87;;
16393;SDS011;8306;51.128;4.476;2023-05-10T06:08:24;34.57;;;30.07;;
16393;SDS011;8306;51.128;4.476;2023-05-10T06:10:50;31.13;;;27.40;;
16393;SDS011;8306;51.128;4.476;2023-05-10T06:13:17;33.97;;;28.50;;
16393;SDS011;8306;51.128;4.476;2023-05-10T06:15:43;30.73;;;27.50;;
16393;SDS011;8306;51.128;4.476;2023-05-10T06:18:10;28.07;;;25.40;;
16393;SDS011;8306;51.128;4.476;2023-05-10T06:20:36;28.77;;;25.97;;
16393;SDS011;8306;51.128;4.476;2023-05-10T06:23:03;28.33;;;25.50;;
16393;SDS011;8306;51.128;4.476;2023-05-10T06:25:29;29.20;;;26.10;;
16393;SDS011;8306;51.128;4.476;2023-05-10T06:27:56;31.43;;;27.27;;
16393;SDS011;8306;51.128;4.476;2023-05-10T06:30:23;28.57;;;25.73;;
16393;SDS011;8306;51.128;4.476;2023-05-10T06:32:49;27.17;;;24.73;;
16393;SDS011;8306;51.128;4.476;2023-05-10T06:35:15;28.13;;;24.67;;
16393;SDS011;8306;51.128;4.476;2023-05-10T06:37:42;26.67;;;24.13;;
16393;SDS011;8306;51.128;4.476;2023-05-10T06:40:08;25.93;;;23.43;;
16393;SDS011;8306;51.128;4.476;2023-05-10T06:42:35;25.77;;;23.50;;
16393;SDS011;8306;51.128;4.476;2023-05-10T06:45:01;25.70;;;23.37;;
16393;SDS011;8306;51.128;4.476;2023-05-10T06:47:28;26.30;;;23.67;;
16393;SDS011;8306;51.128;4.476;2023-05-10T06:49:54;24.77;;;22.33;;
16393;SDS011;8306;51.128;4.476;2023-05-10T06:52:21;22.43;;;20.50;;
16393;SDS011;8306;51.128;4.476;2023-05-10T06:54:47;21.60;;;19.67;;
16393;SDS011;8306;51.128;4.476;2023-05-10T06:57:14;20.93;;;19.23;;
16393;SDS011;8306;51.128;4.476;2023-05-10T06:59:40;24.07;;;21.57;;
16393;SDS011;8306;51.128;4.476;2023-05-10T07:02:07;23.17;;;21.27;;
16393;SDS011;8306;51.128;4.476;2023-05-10T07:04:33;23.10;;;21.13;;
16393;SDS011;8306;51.128;4.476;2023-05-10T07:06:59;24.63;;;22.27;;
16393;SDS011;8306;51.128;4.476;2023-05-10T07:09:26;24.43;;;22.10;;
16393;SDS011;8306;51.128;4.476;2023-05-10T07:11:52;24.73;;;22.67;;
16393;SDS011;8306;51.128;4.476;2023-05-10T07:14:19;26.10;;;23.70;;
16393;SDS011;8306;51.128;4.476;2023-05-10T07:16:45;26.17;;;23.63;;
16393;SDS011;8306;51.128;4.476;2023-05-10T07:19:12;26.67;;;24.27;;
16393;SDS011;8306;51.128;4.476;2023-05-10T07:21:38;25.83;;;23.30;;
16393;SDS011;8306;51.128;4.476;2023-05-10T07:24:05;26.80;;;24.13;;
16393;SDS011;8306;51.128;4.476;2023-05-10T07:26:31;25.23;;;23.13;;
16393;SDS011;8306;51.128;4.476;2023-05-10T07:28:58;22.63;;;20.57;;
16393;SDS011;8306;51.128;4.476;2023-05-10T07:31:24;22.77;;;20.93;;
16393;SDS011;8306;51.128;4.476;2023-05-10T07:33:51;22.03;;;20.23;;
16393;SDS011;8306;51.128;4.476;2023-05-10T07:36:17;24.07;;;21.97;;
16393;SDS011;8306;51.128;4.476;2023-05-10T07:38:44;24.30;;;22.00;;
16393;SDS011;8306;51.128;4.476;2023-05-10T07:41:13;24.13;;;22.03;;
16393;SDS011;8306;51.128;4.476;2023-05-10T07:43:37;24.10;;;22.00;;
16393;SDS011;8306;51.128;4.476;2023-05-10T07:46:03;21.90;;;20.17;;
16393;SDS011;8306;51.128;4.476;2023-05-10T07:48:30;21.63;;;19.93;;
16393;SDS011;8306;51.128;4.476;2023-05-10T07:50:56;19.27;;;17.77;;
16393;SDS011;8306;51.128;4.476;2023-05-10T07:53:23;18.37;;;17.07;;
16393;SDS011;8306;51.128;4.476;2023-05-10T07:55:57;19.57;;;18.10;;
16393;SDS011;8306;51.128;4.476;2023-05-10T07:58:24;17.83;;;16.50;;
16393;SDS011;8306;51.128;4.476;2023-05-10T08:00:51;18.17;;;16.47;;
16393;SDS011;8306;51.128;4.476;2023-05-10T08:03:17;17.70;;;16.50;;
16393;SDS011;8306;51.128;4.476;2023-05-10T08:05:44;17.93;;;16.70;;
16393;SDS011;8306;51.128;4.476;2023-05-10T08:08:10;19.07;;;17.33;;
16393;SDS011;8306;51.128;4.476;2023-05-10T08:10:37;20.60;;;19.07;;
16393;SDS011;8306;51.128;4.476;2023-05-10T08:13:03;18.80;;;17.30;;
16393;SDS011;8306;51.128;4.476;2023-05-10T08:15:30;19.90;;;18.23;;
16393;SDS011;8306;51.128;4.476;2023-05-10T08:17:56;17.83;;;16.53;;
16393;SDS011;8306;51.128;4.476;2023-05-10T08:20:23;16.60;;;15.50;;
16393;SDS011;8306;51.128;4.476;2023-05-10T08:22:49;17.07;;;15.87;;
16393;SDS011;8306;51.128;4.476;2023-05-10T08:25:15;15.13;;;14.13;;
16393;SDS011;8306;51.128;4.476;2023-05-10T08:27:42;13.73;;;12.63;;
16393;SDS011;8306;51.128;4.476;2023-05-10T08:30:09;14.87;;;13.80;;
16393;SDS011;8306;51.128;4.476;2023-05-10T08:32:35;13.67;;;12.67;;
16393;SDS011;8306;51.128;4.476;2023-05-10T08:35:01;13.77;;;12.87;;
16393;SDS011;8306;51.128;4.476;2023-05-10T08:37:29;13.43;;;12.37;;
16393;SDS011;8306;51.128;4.476;2023-05-10T08:39:54;15.27;;;14.07;;
16393;SDS011;8306;51.128;4.476;2023-05-10T08:42:21;15.67;;;14.47;;
16393;SDS011;8306;51.128;4.476;2023-05-10T08:44:47;15.03;;;13.93;;
16393;SDS011;8306;51.128;4.476;2023-05-10T08:47:15;14.40;;;13.33;;
16393;SDS011;8306;51.128;4.476;2023-05-10T08:49:40;14.97;;;13.87;;
16393;SDS011;8306;51.128;4.476;2023-05-10T08:52:07;15.77;;;14.57;;
16393;SDS011;8306;51.128;4.476;2023-05-10T08:54:33;15.83;;;14.73;;
16393;SDS011;8306;51.128;4.476;2023-05-10T08:57:00;16.37;;;15.13;;
16393;SDS011;8306;51.128;4.476;2023-05-10T08:59:27;14.90;;;13.83;;
16393;SDS011;8306;51.128;4.476;2023-05-10T09:01:53;15.67;;;14.57;;
16393;SDS011;8306;51.128;4.476;2023-05-10T09:04:19;16.83;;;15.60;;
16393;SDS011;8306;51.128;4.476;2023-05-10T09:06:46;16.23;;;14.90;;
16393;SDS011;8306;51.128;4.476;2023-05-10T09:09:12;18.37;;;16.57;;
16393;SDS011;8306;51.128;4.476;2023-05-10T09:11:39;16.90;;;15.57;;
16393;SDS011;8306;51.128;4.476;2023-05-10T09:14:05;15.60;;;14.17;;
16393;SDS011;8306;51.128;4.476;2023-05-10T09:16:32;13.70;;;12.60;;
16393;SDS011;8306;51.128;4.476;2023-05-10T09:18:58;14.70;;;13.40;;
16393;SDS011;8306;51.128;4.476;2023-05-10T09:21:25;15.27;;;14.00;;
16393;SDS011;8306;51.128;4.476;2023-05-10T09:23:51;14.17;;;13.07;;
16393;SDS011;8306;51.128;4.476;2023-05-10T09:26:21;14.90;;;13.60;;
16393;SDS011;8306;51.128;4.476;2023-05-10T09:28:50;14.60;;;13.27;;
16393;SDS011;8306;51.128;4.476;2023-05-10T09:31:19;14.37;;;13.07;;
16393;SDS011;8306;51.128;4.476;2023-05-10T09:33:46;15.30;;;14.00;;
16393;SDS011;8306;51.128;4.476;2023-05-10T09:36:12;15.03;;;13.73;;
16393;SDS011;8306;51.128;4.476;2023-05-10T09:38:52;14.97;;;13.67;;
16393;SDS011;8306;51.128;4.476;2023-05-10T09:41:21;13.80;;;12.43;;
16393;SDS011;8306;51.128;4.476;2023-05-10T09:43:49;15.27;;;12.00;;
16393;SDS011;8306;51.128;4.476;2023-05-10T09:46:15;13.27;;;12.00;;
16393;SDS011;8306;51.128;4.476;2023-05-10T09:48:43;12.47;;;11.37;;
16393;SDS011;8306;51.128;4.476;2023-05-10T09:51:08;12.07;;;10.97;;
16393;SDS011;8306;51.128;4.476;2023-05-10T09:53:35;12.70;;;11.40;;
16393;SDS011;8306;51.128;4.476;2023-05-10T09:56:01;13.40;;;11.47;;
16393;SDS011;8306;51.128;4.476;2023-05-10T09:58:28;11.77;;;10.67;;
16393;SDS011;8306;51.128;4.476;2023-05-10T10:00:54;11.00;;;9.97;;
16393;SDS011;8306;51.128;4.476;2023-05-10T10:03:21;11.90;;;10.90;;
16393;SDS011;8306;51.128;4.476;2023-05-10T10:05:47;12.30;;;11.10;;
16393;SDS011;8306;51.128;4.476;2023-05-10T10:08:14;10.90;;;9.90;;
16393;SDS011;8306;51.128;4.476;2023-05-10T10:10:40;12.73;;;10.53;;
16393;SDS011;8306;51.128;4.476;2023-05-10T10:13:07;11.47;;;10.43;;
16393;SDS011;8306;51.128;4.476;2023-05-10T10:15:34;10.93;;;10.03;;
16393;SDS011;8306;51.128;4.476;2023-05-10T10:18:00;10.97;;;9.90;;
16393;SDS011;8306;51.128;4.476;2023-05-10T10:20:27;9.27;;;8.57;;
16393;SDS011;8306;51.128;4.476;2023-05-10T10:22:53;10.33;;;9.43;;
16393;SDS011;8306;51.128;4.476;2023-05-10T10:25:19;10.07;;;9.10;;
16393;SDS011;8306;51.128;4.476;2023-05-10T10:27:54;10.27;;;9.47;;
16393;SDS011;8306;51.128;4.476;2023-05-10T10:35:35;10.07;;;9.27;;
16393;SDS011;8306;51.128;4.476;2023-05-10T10:38:01;10.33;;;9.47;;
16393;SDS011;8306;51.128;4.476;2023-05-10T10:40:29;9.83;;;9.13;;
16393;SDS011;8306;51.128;4.476;2023-05-10T10:42:54;10.53;;;9.63;;
16393;SDS011;8306;51.128;4.476;2023-05-10T10:45:21;10.20;;;9.40;;
16393;SDS011;8306;51.128;4.476;2023-05-10T10:47:47;10.60;;;9.70;;
16393;SDS011;8306;51.128;4.476;2023-05-10T10:50:14;10.17;;;9.47;;
16393;SDS011;8306;51.128;4.476;2023-05-10T10:52:40;10.20;;;9.40;;
16393;SDS011;8306;51.128;4.476;2023-05-10T10:55:07;10.53;;;9.50;;
16393;SDS011;8306;51.128;4.476;2023-05-10T10:57:54;9.93;;;9.23;;
16393;SDS011;8306;51.128;4.476;2023-05-10T11:02:53;9.50;;;8.80;;
16393;SDS011;8306;51.128;4.476;2023-05-10T11:07:55;8.43;;;7.77;;
16393;SDS011;8306;51.128;4.476;2023-05-10T11:10:22;9.07;;;8.27;;
16393;SDS011;8306;51.128;4.476;2023-05-10T11:15:37;7.73;;;7.23;;
16393;SDS011;8306;51.128;4.476;2023-05-10T11:20:51;7.47;;;6.97;;
16393;SDS011;8306;51.128;4.476;2023-05-10T11:23:17;8.60;;;8.00;;
16393;SDS011;8306;51.128;4.476;2023-05-10T11:25:44;8.40;;;7.87;;
16393;SDS011;8306;51.128;4.476;2023-05-10T11:28:10;8.47;;;7.77;;
16393;SDS011;8306;51.128;4.476;2023-05-10T11:30:40;8.83;;;8.13;;
16393;SDS011;8306;51.128;4.476;2023-05-10T11:33:06;8.17;;;7.67;;
16393;SDS011;8306;51.128;4.476;2023-05-10T11:35:41;8.03;;;7.53;;
16393;SDS011;8306;51.128;4.476;2023-05-10T11:38:07;8.33;;;7.67;;
16393;SDS011;8306;51.128;4.476;2023-05-10T11:40:36;8.67;;;7.90;;
16393;SDS011;8306;51.128;4.476;2023-05-10T11:43:03;8.43;;;7.83;;
16393;SDS011;8306;51.128;4.476;2023-05-10T11:45:31;8.60;;;7.90;;
16393;SDS011;8306;51.128;4.476;2023-05-10T11:47:56;8.20;;;7.50;;
16393;SDS011;8306;51.128;4.476;2023-05-10T11:50:22;7.80;;;7.30;;
16393;SDS011;8306;51.128;4.476;2023-05-10T11:52:51;8.10;;;7.40;;
16393;SDS011;8306;51.128;4.476;2023-05-10T11:55:17;7.57;;;7.07;;
16393;SDS011;8306;51.128;4.476;2023-05-10T11:57:44;7.60;;;7.03;;
16393;SDS011;8306;51.128;4.476;2023-05-10T12:00:10;7.57;;;7.00;;
16393;SDS011;8306;51.128;4.476;2023-05-10T12:02:37;8.37;;;7.77;;
16393;SDS011;8306;51.128;4.476;2023-05-10T12:05:04;7.43;;;6.93;;
16393;SDS011;8306;51.128;4.476;2023-05-10T12:07:30;7.53;;;6.93;;
16393;SDS011;8306;51.128;4.476;2023-05-10T12:10:09;7.57;;;6.97;;
16393;SDS011;8306;51.128;4.476;2023-05-10T12:12:36;8.30;;;7.70;;
16393;SDS011;8306;51.128;4.476;2023-05-10T12:15:01;8.43;;;7.73;;
16393;SDS011;8306;51.128;4.476;2023-05-10T12:17:28;8.73;;;8.03;;
16393;SDS011;8306;51.128;4.476;2023-05-10T12:19:58;8.87;;;8.20;;
16393;SDS011;8306;51.128;4.476;2023-05-10T12:22:21;9.07;;;8.27;;
16393;SDS011;8306;51.128;4.476;2023-05-10T12:24:47;7.80;;;7.20;;
16393;SDS011;8306;51.128;4.476;2023-05-10T12:27:14;8.47;;;7.87;;
16393;SDS011;8306;51.128;4.476;2023-05-10T12:29:41;7.43;;;6.93;;
16393;SDS011;8306;51.128;4.476;2023-05-10T12:32:07;8.40;;;7.80;;
16393;SDS011;8306;51.128;4.476;2023-05-10T12:34:33;8.80;;;8.20;;
16393;SDS011;8306;51.128;4.476;2023-05-10T12:37:00;8.80;;;8.10;;
16393;SDS011;8306;51.128;4.476;2023-05-10T12:39:26;8.67;;;7.87;;
16393;SDS011;8306;51.128;4.476;2023-05-10T12:41:52;9.43;;;8.70;;
16393;SDS011;8306;51.128;4.476;2023-05-10T12:44:19;9.10;;;8.50;;
16393;SDS011;8306;51.128;4.476;2023-05-10T12:46:45;9.33;;;8.57;;
16393;SDS011;8306;51.128;4.476;2023-05-10T12:49:12;9.37;;;8.57;;
16393;SDS011;8306;51.128;4.476;2023-05-10T12:51:38;9.60;;;8.80;;
16393;SDS011;8306;51.128;4.476;2023-05-10T12:54:05;9.47;;;8.83;;
16393;SDS011;8306;51.128;4.476;2023-05-10T12:56:31;8.90;;;8.30;;
16393;SDS011;8306;51.128;4.476;2023-05-10T12:58:58;9.20;;;8.50;;
16393;SDS011;8306;51.128;4.476;2023-05-10T13:01:24;9.17;;;8.47;;
16393;SDS011;8306;51.128;4.476;2023-05-10T13:03:51;8.60;;;8.00;;
16393;SDS011;8306;51.128;4.476;2023-05-10T13:06:17;8.70;;;8.00;;
16393;SDS011;8306;51.128;4.476;2023-05-10T13:08:44;9.43;;;8.60;;
16393;SDS011;8306;51.128;4.476;2023-05-10T13:11:10;8.77;;;8.13;;
16393;SDS011;8306;51.128;4.476;2023-05-10T13:13:37;8.20;;;7.60;;
16393;SDS011;8306;51.128;4.476;2023-05-10T13:16:03;8.20;;;7.50;;
16393;SDS011;8306;51.128;4.476;2023-05-10T13:18:30;7.97;;;7.47;;
16393;SDS011;8306;51.128;4.476;2023-05-10T13:20:56;7.77;;;7.23;;
16393;SDS011;8306;51.128;4.476;2023-05-10T13:23:23;8.97;;;8.27;;
16393;SDS011;8306;51.128;4.476;2023-05-10T13:25:49;8.30;;;7.70;;
16393;SDS011;8306;51.128;4.476;2023-05-10T13:28:15;8.70;;;8.10;;
16393;SDS011;8306;51.128;4.476;2023-05-10T13:30:42;8.67;;;7.90;;
16393;SDS011;8306;51.128;4.476;2023-05-10T13:33:08;7.23;;;6.73;;
16393;SDS011;8306;51.128;4.476;2023-05-10T13:35:35;8.50;;;7.80;;
16393;SDS011;8306;51.128;4.476;2023-05-10T13:38:01;8.87;;;8.07;;
16393;SDS011;8306;51.128;4.476;2023-05-10T13:40:28;8.00;;;7.30;;
16393;SDS011;8306;51.128;4.476;2023-05-10T13:42:54;8.33;;;7.63;;
16393;SDS011;8306;51.128;4.476;2023-05-10T13:45:21;7.63;;;6.90;;
16393;SDS011;8306;51.128;4.476;2023-05-10T13:47:47;8.70;;;7.93;;
16393;SDS011;8306;51.128;4.476;2023-05-10T13:50:14;7.80;;;7.27;;
16393;SDS011;8306;51.128;4.476;2023-05-10T13:52:40;8.10;;;7.50;;
16393;SDS011;8306;51.128;4.476;2023-05-10T13:55:07;8.17;;;7.40;;
16393;SDS011;8306;51.128;4.476;2023-05-10T13:57:33;8.37;;;7.67;;
16393;SDS011;8306;51.128;4.476;2023-05-10T14:00:00;8.17;;;7.47;;
16393;SDS011;8306;51.128;4.476;2023-05-10T14:02:26;8.73;;;7.97;;
16393;SDS011;8306;51.128;4.476;2023-05-10T14:04:56;8.50;;;7.83;;
16393;SDS011;8306;51.128;4.476;2023-05-10T14:07:25;8.50;;;7.80;;
16393;SDS011;8306;51.128;4.476;2023-05-10T14:10:01;8.57;;;7.97;;
16393;SDS011;8306;51.128;4.476;2023-05-10T14:12:24;9.17;;;8.23;;
16393;SDS011;8306;51.128;4.476;2023-05-10T14:14:53;9.73;;;8.93;;
16393;SDS011;8306;51.128;4.476;2023-05-10T14:17:20;8.93;;;8.33;;
16393;SDS011;8306;51.128;4.476;2023-05-10T14:19:46;11.17;;;8.13;;
16393;SDS011;8306;51.128;4.476;2023-05-10T14:22:13;9.13;;;8.53;;
16393;SDS011;8306;51.128;4.476;2023-05-10T14:24:39;9.10;;;8.27;;
16393;SDS011;8306;51.128;4.476;2023-05-10T14:27:05;9.60;;;8.90;;
16393;SDS011;8306;51.128;4.476;2023-05-10T14:29:32;9.20;;;8.47;;
16393;SDS011;8306;51.128;4.476;2023-05-10T14:31:58;9.67;;;8.80;;
16393;SDS011;8306;51.128;4.476;2023-05-10T14:34:25;9.13;;;8.43;;
16393;SDS011;8306;51.128;4.476;2023-05-10T14:36:51;8.50;;;7.90;;
16393;SDS011;8306;51.128;4.476;2023-05-10T14:39:18;9.27;;;8.63;;
16393;SDS011;8306;51.128;4.476;2023-05-10T14:41:44;9.97;;;9.27;;
16393;SDS011;8306;51.128;4.476;2023-05-10T14:44:11;9.57;;;8.97;;
16393;SDS011;8306;51.128;4.476;2023-05-10T14:46:37;8.90;;;8.30;;
16393;SDS011;8306;51.128;4.476;2023-05-10T14:49:04;10.33;;;9.53;;
16393;SDS011;8306;51.128;4.476;2023-05-10T14:51:30;10.33;;;9.53;;
16393;SDS011;8306;51.128;4.476;2023-05-10T14:53:57;10.63;;;9.63;;
16393;SDS011;8306;51.128;4.476;2023-05-10T14:56:23;10.20;;;9.50;;
16393;SDS011;8306;51.128;4.476;2023-05-10T14:58:50;10.90;;;9.97;;
16393;SDS011;8306;51.128;4.476;2023-05-10T15:01:16;11.67;;;10.80;;
16393;SDS011;8306;51.128;4.476;2023-05-10T15:03:43;11.10;;;10.30;;
16393;SDS011;8306;51.128;4.476;2023-05-10T15:06:09;10.97;;;10.33;;
16393;SDS011;8306;51.128;4.476;2023-05-10T15:08:36;11.17;;;10.37;;
16393;SDS011;8306;51.128;4.476;2023-05-10T15:11:02;7.00;;;6.50;;
16393;SDS011;8306;51.128;4.476;2023-05-10T15:13:29;5.13;;;4.77;;
16393;SDS011;8306;51.128;4.476;2023-05-10T15:15:55;4.50;;;4.10;;
16393;SDS011;8306;51.128;4.476;2023-05-10T15:18:21;3.40;;;3.10;;
16393;SDS011;8306;51.128;4.476;2023-05-10T15:20:48;3.67;;;3.40;;
16393;SDS011;8306;51.128;4.476;2023-05-10T15:23:14;2.97;;;2.77;;
16393;SDS011;8306;51.128;4.476;2023-05-10T15:25:41;2.90;;;2.70;;